createdAt,value
2022-10-20T00:01:02.009Z,5.99
2022-10-20T00:03:33.842Z,6.02
2022-10-20T00:06:10.156Z,6.19
2022-10-20T00:08:40.116Z,6.08
2022-10-20T00:11:11.124Z,6.04
2022-10-20T00:13:53.492Z,6.15
2022-10-20T00:16:23.423Z,6.05
2022-10-20T00:18:54.975Z,5.91
2022-10-20T00:21:25.911Z,6.02
2022-10-20T00:24:05.415Z,6.05
2022-10-20T00:26:35.064Z,5.84
2022-10-20T00:29:05.848Z,5.87
2022-10-20T00:31:35.246Z,5.90
2022-10-20T00:34:06.570Z,5.92
2022-10-20T00:36:43.862Z,5.92
2022-10-20T00:39:25.534Z,5.85
2022-10-20T00:41:54.843Z,5.74
2022-10-20T00:44:52.714Z,5.77
2022-10-20T00:47:34.149Z,5.75
2022-10-20T00:50:10.469Z,5.80
2022-10-20T00:52:40.749Z,5.80
2022-10-20T00:55:12.274Z,5.76
2022-10-20T00:57:42.911Z,5.81
2022-10-20T01:02:56.745Z,5.81
2022-10-20T01:05:28.189Z,5.76
2022-10-20T01:08:03.160Z,5.73
2022-10-20T01:10:38.787Z,5.60
2022-10-20T01:13:17.277Z,5.70
2022-10-20T01:15:54.609Z,5.57
2022-10-20T01:18:33.674Z,5.47
2022-10-20T01:21:27.439Z,5.58
2022-10-20T01:24:29.839Z,5.49
2022-10-20T01:27:29.959Z,5.53
2022-10-20T01:30:07.947Z,5.33
2022-10-20T01:32:50.633Z,5.34
2022-10-20T01:35:29.348Z,5.34
2022-10-20T01:38:08.101Z,5.40
2022-10-20T01:40:43.788Z,5.39
2022-10-20T01:43:24.519Z,5.40
2022-10-20T01:45:55.906Z,5.39
2022-10-20T01:48:30.800Z,5.34
2022-10-20T01:51:06.469Z,5.31
2022-10-20T01:53:35.610Z,5.15
2022-10-20T01:56:07.614Z,5.17
2022-10-20T01:59:08.210Z,5.30
2022-10-20T02:01:56.658Z,5.28
2022-10-20T02:04:34.487Z,5.18
2022-10-20T02:07:14.522Z,5.22
2022-10-20T02:09:50.476Z,5.24
2022-10-20T02:12:24.451Z,5.31
2022-10-20T02:15:02.420Z,5.31
2022-10-20T02:17:36.102Z,5.28
2022-10-20T02:20:08.981Z,5.23
2022-10-20T02:22:39.651Z,5.34
2022-10-20T02:25:17.708Z,5.40
2022-10-20T02:27:49.603Z,5.24
2022-10-20T02:30:24.419Z,5.11
2022-10-20T02:32:54.508Z,5.33
2022-10-20T02:35:28.650Z,5.27
2022-10-20T02:37:58.329Z,5.33
2022-10-20T02:40:27.691Z,5.39
2022-10-20T02:42:57.120Z,5.38
2022-10-20T02:45:28.210Z,5.30
2022-10-20T02:47:57.379Z,5.41
2022-10-20T02:50:26.438Z,5.44
2022-10-20T02:55:30.776Z,5.42
2022-10-20T02:58:00.198Z,5.41
2022-10-20T03:00:36.390Z,5.40
2022-10-20T03:03:08.949Z,5.51
2022-10-20T03:05:44.045Z,5.51
2022-10-20T03:08:13.615Z,5.52
2022-10-20T03:10:43.033Z,5.48
2022-10-20T03:13:13.890Z,5.48
2022-10-20T03:15:52.870Z,5.35
2022-10-20T03:18:22.009Z,5.36
2022-10-20T03:20:53.455Z,5.38
2022-10-20T03:23:28.058Z,5.39
2022-10-20T03:26:03.588Z,5.38
2022-10-20T03:28:32.776Z,5.33
2022-10-20T03:31:04.135Z,5.25
2022-10-20T03:33:33.447Z,5.21
2022-10-20T03:36:07.632Z,5.30
2022-10-20T03:38:36.874Z,5.32
2022-10-20T03:41:06.117Z,5.29
2022-10-20T03:43:35.358Z,5.29
2022-10-20T03:46:08.690Z,5.29
2022-10-20T03:48:44.491Z,5.10
2022-10-20T03:51:15.249Z,5.17
2022-10-20T03:53:44.531Z,4.84
2022-10-20T03:56:18.576Z,5.25
2022-10-20T03:58:54.159Z,5.35
2022-10-20T04:01:35.666Z,5.28
2022-10-20T04:04:04.985Z,5.21
2022-10-20T04:06:39.185Z,5.33
2022-10-20T04:09:08.456Z,5.27
2022-10-20T04:11:37.606Z,5.40
2022-10-20T04:14:11.750Z,5.37
2022-10-20T04:16:43.012Z,5.27
2022-10-20T04:19:23.490Z,5.19
2022-10-20T04:21:52.556Z,5.07
2022-10-20T04:24:28.808Z,5.16
2022-10-20T04:26:58.248Z,5.06
2022-10-20T04:29:27.353Z,5.07
2022-10-20T04:32:03.534Z,5.03
2022-10-20T04:34:32.729Z,5.07
2022-10-20T04:37:01.768Z,5.00
2022-10-20T04:39:31.220Z,5.11
2022-10-20T04:42:00.490Z,5.10
2022-10-20T04:44:30.792Z,5.10
2022-10-20T04:47:00.456Z,5.01
2022-10-20T04:49:38.492Z,4.88
2022-10-20T04:52:07.800Z,5.13
2022-10-20T04:54:37.092Z,5.07
2022-10-20T04:57:06.617Z,4.94
2022-10-20T04:59:35.826Z,5.04
2022-10-20T05:02:04.969Z,5.02
2022-10-20T05:04:34.166Z,5.07
2022-10-20T05:07:05.258Z,5.08
2022-10-20T05:09:34.649Z,5.12
2022-10-20T05:12:04.112Z,5.06
2022-10-20T05:14:38.652Z,5.10
2022-10-20T05:17:09.927Z,5.10
2022-10-20T05:19:39.390Z,4.97
2022-10-20T05:22:10.521Z,5.07
2022-10-20T05:24:44.826Z,4.95
2022-10-20T05:27:20.960Z,5.12
2022-10-20T05:29:50.119Z,5.05
2022-10-20T05:32:19.282Z,5.18
2022-10-20T05:34:48.564Z,5.10
2022-10-20T05:37:21.453Z,5.13
2022-10-20T05:39:52.384Z,5.07
2022-10-20T05:42:26.713Z,5.08
2022-10-20T05:44:56.239Z,5.07
2022-10-20T05:47:26.091Z,5.03
2022-10-20T05:49:55.647Z,5.03
2022-10-20T05:52:26.826Z,5.11
2022-10-20T05:55:01.359Z,5.02
2022-10-20T05:57:37.230Z,4.97
2022-10-20T06:00:11.378Z,5.12
2022-10-20T06:02:43.254Z,5.06
2022-10-20T06:05:18.666Z,5.18
2022-10-20T06:07:49.896Z,5.10
2022-10-20T06:10:21.431Z,4.99
2022-10-20T06:12:51.236Z,5.17
2022-10-20T06:15:20.300Z,5.29
2022-10-20T06:17:52.456Z,5.34
2022-10-20T06:20:21.603Z,5.25
2022-10-20T06:22:52.693Z,5.23
2022-10-20T06:25:21.944Z,5.32
2022-10-20T06:27:50.957Z,5.32
2022-10-20T06:30:20.411Z,5.41
2022-10-20T06:32:49.502Z,5.44
2022-10-20T06:35:19.239Z,5.32
2022-10-20T06:37:55.592Z,5.43
2022-10-20T06:40:29.770Z,5.47
2022-10-20T06:42:59.085Z,5.43
2022-10-20T06:45:28.265Z,5.57
2022-10-20T06:48:09.434Z,5.65
2022-10-20T06:50:38.687Z,5.43
2022-10-20T06:53:12.121Z,5.60
2022-10-20T06:58:21.890Z,5.71
2022-10-20T07:01:00.301Z,5.69
2022-10-20T07:03:30.314Z,5.79
2022-10-20T07:06:00.086Z,5.79
2022-10-20T07:08:33.598Z,5.86
2022-10-20T07:11:04.448Z,5.93
2022-10-20T07:13:38.484Z,5.85
2022-10-20T07:16:09.621Z,5.68
2022-10-20T07:18:39.380Z,5.69
2022-10-20T07:21:10.610Z,5.72
2022-10-20T07:23:47.765Z,5.78
2022-10-20T07:26:19.230Z,5.67
2022-10-20T07:28:55.526Z,5.57
2022-10-20T07:31:27.012Z,5.37
2022-10-20T07:34:06.758Z,5.19
2022-10-20T07:36:45.179Z,5.18
2022-10-20T07:39:16.512Z,5.10
2022-10-20T07:41:52.437Z,5.13
2022-10-20T07:44:24.355Z,5.04
2022-10-20T07:46:55.885Z,5.18
2022-10-20T07:52:16.081Z,5.21
2022-10-20T07:54:47.685Z,5.34
2022-10-20T07:57:17.026Z,5.39
2022-10-20T07:59:46.261Z,5.50
2022-10-20T08:02:16.492Z,5.56
2022-10-20T08:04:45.897Z,5.85
2022-10-20T08:07:15.277Z,6.37
2022-10-20T08:09:51.893Z,6.68
2022-10-20T08:12:20.978Z,6.92
2022-10-20T08:14:58.823Z,6.94
2022-10-20T08:17:28.339Z,6.76
2022-10-20T08:20:15.695Z,6.83
2022-10-20T08:22:50.602Z,6.85
2022-10-20T08:25:21.838Z,7.00
2022-10-20T08:30:28.641Z,6.87
2022-10-20T08:32:58.548Z,7.06
2022-10-20T08:35:28.722Z,6.98
2022-10-20T08:37:57.748Z,7.14
2022-10-20T08:40:31.341Z,7.11
2022-10-20T08:43:00.600Z,6.61
2022-10-20T08:45:38.481Z,6.67
2022-10-20T08:48:20.337Z,6.48
2022-10-20T08:50:52.120Z,6.42
2022-10-20T08:53:26.109Z,6.43
2022-10-20T08:56:03.814Z,6.50
2022-10-20T08:58:34.678Z,6.40
2022-10-20T09:01:21.251Z,5.98
2022-10-20T09:03:58.765Z,6.21
2022-10-20T09:06:28.385Z,6.20
2022-10-20T09:08:58.715Z,6.07
2022-10-20T09:11:34.316Z,6.06
2022-10-20T09:14:03.475Z,5.94
2022-10-20T09:16:41.017Z,5.77
2022-10-20T09:19:18.987Z,6.08
2022-10-20T09:21:52.051Z,5.89
2022-10-20T09:24:25.203Z,5.95
2022-10-20T09:26:59.931Z,5.82
2022-10-20T09:29:38.464Z,6.00
2022-10-20T09:32:50.617Z,6.09
2022-10-20T09:35:33.924Z,5.86
2022-10-20T09:38:16.686Z,6.04
2022-10-20T09:40:48.269Z,6.09
2022-10-20T09:43:32.209Z,6.27
2022-10-20T09:46:07.659Z,6.42
2022-10-20T09:48:45.314Z,6.62
2022-10-20T09:51:23.328Z,6.88
2022-10-20T09:53:57.492Z,6.86
2022-10-20T09:56:43.110Z,6.64
2022-10-20T09:59:23.050Z,6.36
2022-10-20T10:01:57.709Z,6.14
2022-10-20T10:04:43.851Z,6.19
2022-10-20T10:07:32.685Z,6.13
2022-10-20T10:10:23.712Z,6.06
2022-10-20T10:12:54.956Z,6.26
2022-10-20T10:15:32.918Z,6.07
2022-10-20T10:18:13.426Z,6.25
2022-10-20T10:20:43.040Z,6.07
2022-10-20T10:23:26.538Z,5.89
2022-10-20T10:25:59.312Z,6.10
2022-10-20T10:28:34.242Z,6.19
2022-10-20T10:31:22.379Z,6.35
2022-10-20T10:34:24.307Z,6.33
2022-10-20T10:36:56.779Z,6.37
2022-10-20T10:39:26.252Z,6.34
2022-10-20T10:45:21.080Z,6.87
2022-10-20T10:48:26.040Z,7.03
2022-10-20T10:51:00.662Z,6.88
2022-10-20T10:53:46.845Z,6.84
2022-10-20T10:56:30.322Z,6.77
2022-10-20T10:59:05.683Z,6.75
2022-10-20T11:01:52.508Z,6.72
2022-10-20T11:04:48.776Z,6.76
2022-10-20T11:07:31.889Z,6.69
2022-10-20T11:10:15.369Z,6.56
2022-10-20T11:13:08.836Z,6.41
2022-10-20T11:15:58.541Z,6.36
2022-10-20T11:18:57.372Z,6.30
2022-10-20T11:21:40.556Z,6.37
2022-10-20T11:24:26.390Z,6.37
2022-10-20T11:29:49.538Z,6.26
2022-10-20T11:32:32.232Z,6.36
2022-10-20T11:35:06.883Z,6.47
2022-10-20T11:37:47.086Z,6.54
2022-10-20T11:40:25.304Z,6.61
2022-10-20T11:43:10.199Z,6.65
2022-10-20T11:46:03.701Z,6.65
2022-10-20T11:48:36.813Z,6.65
2022-10-20T11:51:29.730Z,6.69
2022-10-20T11:54:23.119Z,6.80
2022-10-20T11:57:04.072Z,6.66
2022-10-20T12:00:09.567Z,6.59
2022-10-20T12:03:13.670Z,6.42
2022-10-20T12:06:25.531Z,6.55
2022-10-20T12:09:21.662Z,6.70
2022-10-20T12:11:59.224Z,6.70
2022-10-20T12:14:39.572Z,6.63
2022-10-20T12:17:27.441Z,6.60
2022-10-20T12:20:40.188Z,6.61
2022-10-20T12:23:46.209Z,6.55
2022-10-20T12:26:56.798Z,6.42
2022-10-20T12:32:55.449Z,6.33
2022-10-20T12:36:06.008Z,6.14
2022-10-20T12:38:44.912Z,6.20
2022-10-20T12:41:33.608Z,6.22
2022-10-20T12:44:06.532Z,6.34
2022-10-20T12:46:42.840Z,6.32
2022-10-20T12:56:12.749Z,6.03
2022-10-20T12:59:24.272Z,5.99
2022-10-20T13:02:24.949Z,6.06
2022-10-20T13:04:57.379Z,5.60
2022-10-20T13:08:09.590Z,5.05
2022-10-20T13:10:39.971Z,5.64
2022-10-20T13:13:58.786Z,5.46
2022-10-20T13:16:34.231Z,5.63
2022-10-20T13:19:09.646Z,4.84
2022-10-20T13:21:48.760Z,5.20
2022-10-20T13:24:27.169Z,5.81
2022-10-20T13:27:05.165Z,4.30
2022-10-20T13:29:44.349Z,4.89
2022-10-20T13:32:26.647Z,4.28
2022-10-20T13:35:03.968Z,3.65
2022-10-20T13:37:58.755Z,4.88
2022-10-20T13:40:49.786Z,3.55
2022-10-20T13:43:31.426Z,4.13
2022-10-20T13:46:19.003Z,4.70
2022-10-20T13:49:08.385Z,3.44
2022-10-20T13:51:46.036Z,4.04
2022-10-20T13:54:24.048Z,3.84
2022-10-20T13:56:54.570Z,4.11
2022-10-20T13:59:28.553Z,3.99
2022-10-20T14:02:05.429Z,4.03
2022-10-20T14:04:37.129Z,4.19
2022-10-20T14:07:14.524Z,4.07
2022-10-20T14:09:47.580Z,4.05
2022-10-20T14:12:25.424Z,3.91
2022-10-20T14:15:12.534Z,3.89
2022-10-20T14:17:45.931Z,3.80
2022-10-20T14:20:22.654Z,3.82
2022-10-20T14:22:58.190Z,3.77
2022-10-20T14:25:28.296Z,3.73
2022-10-20T14:27:58.343Z,3.53
2022-10-20T14:30:28.782Z,3.65
2022-10-20T14:32:59.980Z,3.45
2022-10-20T14:35:34.502Z,3.37
2022-10-20T14:38:08.287Z,3.34
2022-10-20T14:40:40.077Z,3.47
2022-10-20T14:43:17.007Z,3.41
2022-10-20T14:45:54.902Z,3.39
2022-10-20T14:48:28.815Z,3.37
2022-10-20T14:50:58.055Z,3.36
2022-10-20T14:53:34.728Z,3.48
2022-10-20T14:56:05.552Z,3.55
2022-10-20T14:58:38.987Z,3.51
2022-10-20T15:01:26.437Z,3.31
2022-10-20T15:04:17.055Z,3.33
2022-10-20T15:06:52.825Z,3.37
2022-10-20T15:09:29.939Z,3.40
2022-10-20T15:11:59.639Z,3.37
2022-10-20T15:14:29.125Z,3.22
2022-10-20T15:17:31.270Z,3.15
2022-10-20T15:20:20.201Z,3.26
2022-10-20T15:22:54.692Z,3.06
2022-10-20T15:25:32.205Z,3.06
2022-10-20T15:28:01.805Z,3.23
2022-10-20T15:30:32.049Z,3.47
2022-10-20T15:33:01.253Z,3.46
2022-10-20T15:35:38.556Z,3.60
2022-10-20T15:38:15.354Z,3.63
2022-10-20T15:40:45.517Z,3.86
2022-10-20T15:43:16.710Z,3.95
2022-10-20T15:45:55.261Z,4.03
2022-10-20T15:48:26.840Z,4.09
2022-10-20T15:50:58.619Z,4.15
2022-10-20T15:53:29.989Z,4.19
2022-10-20T15:55:59.373Z,4.29
2022-10-20T15:58:28.432Z,4.33
2022-10-20T16:00:57.815Z,4.39
2022-10-20T16:03:27.867Z,4.25
2022-10-20T16:05:57.066Z,3.95
2022-10-20T16:08:26.268Z,3.98
2022-10-20T16:10:58.200Z,3.80
2022-10-20T16:13:34.330Z,3.63
2022-10-20T16:16:04.310Z,3.73
2022-10-20T16:18:33.403Z,3.60
2022-10-20T16:23:44.859Z,3.57
2022-10-20T16:26:17.119Z,3.47
2022-10-20T16:28:46.363Z,3.55
2022-10-20T16:31:17.298Z,3.58
2022-10-20T16:33:52.457Z,3.49
2022-10-20T16:38:59.992Z,3.56
2022-10-20T16:41:31.388Z,3.48
2022-10-20T16:44:08.137Z,3.73
2022-10-20T16:46:44.461Z,3.40
2022-10-20T16:49:14.094Z,3.22
2022-10-20T16:51:43.419Z,3.26
2022-10-20T16:54:13.737Z,3.38
2022-10-20T16:56:55.316Z,3.35
2022-10-20T16:59:24.777Z,3.30
2022-10-20T17:01:55.399Z,3.24
2022-10-20T17:04:27.956Z,3.27
2022-10-20T17:09:32.804Z,3.24
2022-10-20T17:12:04.079Z,3.38
2022-10-20T17:14:45.178Z,3.27
2022-10-20T17:17:19.578Z,3.27
2022-10-20T17:19:49.310Z,2.99
2022-10-20T17:22:18.633Z,3.02
2022-10-20T17:24:53.071Z,3.17
2022-10-20T17:27:24.191Z,3.10
2022-10-20T17:29:58.804Z,3.05
2022-10-20T17:32:30.326Z,3.20
2022-10-20T17:37:34.641Z,3.20
2022-10-20T17:40:06.608Z,3.19
2022-10-20T17:42:39.188Z,3.19
2022-10-20T17:45:10.093Z,3.13
2022-10-20T17:47:39.883Z,3.12
2022-10-20T17:50:14.179Z,3.13
2022-10-20T17:52:43.349Z,3.22
2022-10-20T17:55:13.191Z,3.22
2022-10-20T17:57:44.454Z,3.25
2022-10-20T18:00:22.428Z,3.01
2022-10-20T18:02:58.565Z,3.10
2022-10-20T18:05:28.192Z,2.86
2022-10-20T18:07:57.286Z,3.00
2022-10-20T18:10:31.558Z,2.85
2022-10-20T18:13:04.501Z,2.75
2022-10-20T18:15:33.914Z,2.75
2022-10-20T18:18:03.180Z,2.71
2022-10-20T18:20:34.356Z,2.78
2022-10-20T18:23:03.997Z,2.78
2022-10-20T18:25:33.511Z,2.72
2022-10-20T18:28:04.889Z,2.84
2022-10-20T18:30:39.071Z,2.89
2022-10-20T18:33:09.523Z,3.01
2022-10-20T18:35:39.072Z,2.65
2022-10-20T18:38:08.304Z,2.80
2022-10-20T18:40:42.616Z,2.70
2022-10-20T18:43:14.016Z,2.54
2022-10-20T18:45:55.226Z,2.50
2022-10-20T18:48:32.003Z,2.69
2022-10-20T18:51:08.483Z,2.68
2022-10-20T18:56:34.404Z,2.58
2022-10-20T18:59:15.777Z,2.73
2022-10-20T19:01:50.354Z,2.55
2022-10-20T19:04:19.623Z,2.76
2022-10-20T19:06:49.958Z,2.77
2022-10-20T19:09:21.184Z,2.70
2022-10-20T19:11:51.245Z,2.35
2022-10-20T19:14:22.363Z,2.60
2022-10-20T19:16:51.781Z,2.54
2022-10-20T19:19:22.399Z,2.53
2022-10-20T19:21:58.505Z,2.68
2022-10-20T19:24:27.831Z,2.67
2022-10-20T19:27:24.954Z,2.62
2022-10-20T19:30:01.383Z,2.53
2022-10-20T19:32:33.266Z,2.39
2022-10-20T19:35:09.831Z,2.39
2022-10-20T19:37:38.910Z,2.29
2022-10-20T19:40:14.011Z,2.39
2022-10-20T19:42:43.319Z,2.37
2022-10-20T19:45:14.497Z,2.35
2022-10-20T19:47:46.030Z,2.46
2022-10-20T19:50:15.940Z,2.47
2022-10-20T19:52:45.359Z,2.47
2022-10-20T19:55:14.816Z,2.39
2022-10-20T19:57:44.080Z,2.46
2022-10-20T20:00:16.073Z,2.43
2022-10-20T20:02:45.418Z,2.49
2022-10-20T20:05:19.761Z,2.36
2022-10-20T20:07:49.161Z,2.51
2022-10-20T20:10:18.578Z,2.34
2022-10-20T20:12:47.919Z,2.43
2022-10-20T20:15:19.458Z,2.32
2022-10-20T20:17:48.766Z,2.48
2022-10-20T20:20:20.089Z,2.50
2022-10-20T20:22:49.324Z,2.45
2022-10-20T20:25:18.673Z,2.55
2022-10-20T20:27:52.845Z,2.48
2022-10-20T20:30:24.166Z,2.47
2022-10-20T20:32:54.339Z,2.42
2022-10-20T20:35:23.569Z,2.39
2022-10-20T20:37:57.957Z,2.38
2022-10-20T20:40:27.269Z,2.38
2022-10-20T20:42:56.374Z,2.38
2022-10-20T20:45:27.721Z,2.41
2022-10-20T20:47:56.936Z,2.26
2022-10-20T20:53:06.743Z,2.20
2022-10-20T20:55:35.993Z,2.34
2022-10-20T20:58:05.206Z,2.28
2022-10-20T21:00:41.572Z,2.25
2022-10-20T21:03:15.870Z,2.12
2022-10-20T21:05:45.248Z,2.01
2022-10-20T21:08:20.087Z,1.94
2022-10-20T21:10:49.489Z,1.94
2022-10-20T21:13:18.717Z,1.80
2022-10-20T21:15:52.903Z,1.94
2022-10-20T21:18:22.089Z,1.97
2022-10-20T21:20:53.718Z,1.84
2022-10-20T21:23:22.511Z,1.93
2022-10-20T21:25:53.454Z,1.88
2022-10-20T21:28:22.740Z,1.79
2022-10-20T21:30:55.269Z,1.79
2022-10-20T21:33:30.278Z,1.68
2022-10-20T21:36:02.716Z,1.78
2022-10-20T21:38:32.719Z,1.84
2022-10-20T21:41:05.983Z,1.85
2022-10-20T21:43:36.944Z,1.86
2022-10-20T21:46:16.899Z,1.90
2022-10-20T21:48:48.288Z,1.90
2022-10-20T21:51:24.315Z,1.85
2022-10-20T21:53:57.498Z,1.85
2022-10-20T21:56:26.875Z,1.90
2022-10-20T21:59:09.933Z,1.88
2022-10-20T22:01:41.050Z,1.92
2022-10-20T22:04:10.264Z,1.94
2022-10-20T22:06:40.058Z,2.03
2022-10-20T22:09:15.362Z,1.89
2022-10-20T22:11:46.444Z,1.87
2022-10-20T22:14:15.677Z,1.84
2022-10-20T22:16:46.719Z,1.91
2022-10-20T22:19:17.426Z,1.92
2022-10-20T22:21:48.498Z,1.97
2022-10-20T22:24:24.233Z,1.98
2022-10-20T22:26:59.702Z,1.99
2022-10-20T22:29:29.059Z,2.04
2022-10-20T22:32:00.224Z,2.07
2022-10-20T22:34:29.784Z,2.12
2022-10-20T22:37:03.896Z,2.09
2022-10-20T22:39:33.089Z,2.15
2022-10-20T22:42:02.219Z,2.18
2022-10-20T22:44:31.249Z,2.10
2022-10-20T22:47:02.651Z,2.27
2022-10-20T22:49:31.919Z,2.23
2022-10-20T22:52:00.994Z,2.20
2022-10-20T22:57:17.105Z,2.07
2022-10-20T22:59:46.224Z,2.13
2022-10-20T23:02:22.156Z,2.13
2022-10-20T23:04:55.956Z,2.16
2022-10-20T23:07:30.125Z,2.11
2022-10-20T23:09:59.360Z,2.12
2022-10-20T23:12:34.253Z,2.12
2022-10-20T23:15:03.425Z,2.04
2022-10-20T23:17:35.867Z,2.06
2022-10-20T23:20:05.877Z,2.05
2022-10-20T23:22:40.000Z,2.05
2022-10-20T23:25:09.982Z,1.90
2022-10-20T23:27:39.231Z,2.00
2022-10-20T23:30:13.583Z,2.01
2022-10-20T23:32:44.758Z,2.00
2022-10-20T23:35:20.502Z,2.01
2022-10-20T23:37:49.535Z,2.04
2022-10-20T23:40:23.880Z,2.10
2022-10-20T23:42:52.984Z,2.12
2022-10-20T23:45:22.109Z,2.14
2022-10-20T23:47:59.220Z,2.14
2022-10-20T23:50:28.323Z,2.12
2022-10-20T23:52:57.489Z,2.07
2022-10-20T23:55:26.544Z,2.02
2022-10-20T23:57:55.666Z,1.97
